Time;durP1;ratioP1;P1;durP2;ratioP2;P2;SDS_P1;SDS_P2;PMS_P1;PMS_P2;Temp;Humidity;BMP_temperature;BMP_pressure;BME280_temperature;BME280_humidity;BME280_pressure;Samples;Min_cycle;Max_cycle;Signal;HPM_P1;HPM_P2
2023/04/25 00:02:25;;;;;;;12.10;3.67;;;14.10;88.50;;;;;;5013727;28;20033;-70
2023/04/25 00:04:51;;;;;;;15.45;4.07;;;14.10;88.80;;;;;;5013791;28;20113;-70
2023/04/25 00:07:17;;;;;;;14.25;3.67;;;14.00;88.50;;;;;;5013677;28;20061;-70
2023/04/25 00:09:44;;;;;;;17.50;4.32;;;14.10;88.60;;;;;;5013827;28;20116;-71
2023/04/25 00:12:10;;;;;;;16.63;4.13;;;14.00;88.60;;;;;;5013685;28;20030;-70
2023/04/25 00:14:36;;;;;;;17.45;4.38;;;14.00;88.70;;;;;;5012298;28;20538;-71
2023/04/25 00:17:02;;;;;;;14.77;4.10;;;14.00;89.10;;;;;;5012185;28;20018;-70
2023/04/25 00:19:28;;;;;;;10.70;3.67;;;14.00;88.80;;;;;;5013577;28;20391;-70
2023/04/25 00:21:55;;;;;;;16.02;4.22;;;14.00;89.20;;;;;;5012374;28;20504;-70
2023/04/25 00:24:20;;;;;;;12.00;4.40;;;14.00;89.40;;;;;;5013371;28;20026;-70
2023/04/25 00:26:46;;;;;;;13.15;4.18;;;14.00;89.60;;;;;;5012370;28;20537;-70
2023/04/25 00:29:12;;;;;;;13.07;3.80;;;14.00;89.70;;;;;;5013319;28;20391;-70
2023/04/25 00:31:37;;;;;;;10.50;4.13;;;14.00;89.40;;;;;;5013360;28;20026;-70
2023/04/25 00:34:03;;;;;;;15.73;4.40;;;14.00;89.30;;;;;;5013317;28;20026;-70
2023/04/25 00:36:28;;;;;;;15.48;4.20;;;14.00;89.40;;;;;;5013321;28;20372;-70
2023/04/25 00:38:57;;;;;;;10.88;3.72;;;14.00;89.30;;;;;;5013257;28;20022;-70
2023/04/25 00:41:23;;;;;;;13.65;4.50;;;14.00;89.30;;;;;;5013422;28;20026;-69
2023/04/25 00:43:49;;;;;;;17.50;4.78;;;14.00;89.40;;;;;;5013284;28;20029;-70
2023/04/25 00:46:15;;;;;;;16.40;5.22;;;14.00;89.70;;;;;;5013101;28;20026;-70
2023/04/25 00:48:41;;;;;;;13.90;4.30;;;14.00;89.80;;;;;;5013418;28;20029;-70
2023/04/25 00:51:06;;;;;;;17.08;4.22;;;13.90;89.60;;;;;;5013033;28;20033;-70
2023/04/25 00:53:32;;;;;;;13.25;4.70;;;13.90;89.80;;;;;;5013161;28;20022;-70
2023/04/25 00:55:58;;;;;;;15.80;3.95;;;13.90;89.80;;;;;;5013104;28;20026;-70
2023/04/25 00:58:24;;;;;;;12.48;3.83;;;13.90;90.00;;;;;;5013230;28;20022;-70
2023/04/25 01:00:51;;;;;;;11.75;3.45;;;13.90;89.90;;;;;;5012316;28;20032;-70
2023/04/25 01:03:19;;;;;;;13.98;3.78;;;13.90;89.90;;;;;;5013158;28;20037;-70
2023/04/25 01:05:45;;;;;;;12.85;4.20;;;13.90;89.70;;;;;;5012792;28;20038;-70
2023/04/25 01:08:11;;;;;;;15.82;4.25;;;13.90;89.80;;;;;;5013093;28;20069;-70
2023/04/25 01:10:36;;;;;;;10.45;3.67;;;14.00;89.90;;;;;;5011559;28;20073;-70
2023/04/25 01:13:03;;;;;;;13.25;3.67;;;14.00;90.20;;;;;;5013045;28;20026;-70
2023/04/25 01:15:28;;;;;;;13.18;3.58;;;13.90;89.30;;;;;;5012611;28;20026;-70
2023/04/25 01:17:55;;;;;;;14.05;4.38;;;13.90;89.40;;;;;;5012862;28;20021;-70
2023/04/25 01:20:22;;;;;;;18.08;4.32;;;13.90;89.70;;;;;;5012978;28;20034;-70
2023/04/25 01:22:49;;;;;;;14.98;4.22;;;13.90;90.10;;;;;;5012747;28;20394;-70
2023/04/25 01:25:14;;;;;;;11.45;3.88;;;13.80;89.70;;;;;;5011470;28;20034;-70
2023/04/25 01:27:40;;;;;;;13.45;3.60;;;13.80;89.90;;;;;;5012817;28;20429;-70
2023/04/25 01:30:07;;;;;;;12.50;3.85;;;13.80;90.00;;;;;;5012785;28;20562;-70
2023/04/25 01:32:39;;;;;;;14.55;3.63;;;13.90;90.00;;;;;;5013263;28;20486;-70
2023/04/25 01:35:09;;;;;;;15.90;4.40;;;13.80;90.00;;;;;;5011294;28;20034;-70
2023/04/25 01:37:44;;;;;;;12.65;3.95;;;13.80;90.00;;;;;;5012921;28;20079;-70
2023/04/25 01:40:11;;;;;;;11.88;3.95;;;13.80;89.70;;;;;;5012795;28;20018;-70
2023/04/25 01:42:40;;;;;;;15.65;4.35;;;13.80;89.90;;;;;;5012902;28;20504;-70
2023/04/25 01:45:07;;;;;;;14.68;3.83;;;13.80;90.00;;;;;;5011200;28;20406;-70
2023/04/25 01:47:34;;;;;;;15.48;4.32;;;13.80;90.10;;;;;;5012697;28;20044;-70
2023/04/25 01:50:01;;;;;;;14.85;4.30;;;13.80;89.70;;;;;;5012799;28;20032;-70
2023/04/25 01:52:26;;;;;;;12.68;3.90;;;13.80;89.80;;;;;;5012418;28;20069;-70
2023/04/25 01:54:53;;;;;;;14.40;3.88;;;13.80;89.90;;;;;;5012758;28;20049;-70
2023/04/25 01:57:19;;;;;;;21.00;4.22;;;13.80;89.90;;;;;;5012448;28;20054;-70
2023/04/25 01:59:45;;;;;;;12.60;3.33;;;13.70;89.60;;;;;;5012447;28;20018;-70
2023/04/25 02:02:11;;;;;;;12.05;3.38;;;13.70;89.20;;;;;;5012589;28;20033;-70
2023/04/25 02:04:36;;;;;;;12.38;3.90;;;13.70;89.30;;;;;;5012621;28;20117;-70
2023/04/25 02:07:03;;;;;;;13.38;3.63;;;13.60;89.30;;;;;;5010950;28;20395;-70
2023/04/25 02:09:29;;;;;;;13.35;3.90;;;13.60;90.00;;;;;;5012749;28;20041;-70
2023/04/25 02:11:55;;;;;;;13.30;4.18;;;13.60;90.00;;;;;;5012628;28;20487;-70
2023/04/25 02:14:20;;;;;;;18.23;4.03;;;13.60;90.20;;;;;;5015862;28;20036;-70
2023/04/25 02:16:46;;;;;;;13.43;3.50;;;13.60;90.10;;;;;;5015694;28;20525;-70
2023/04/25 02:19:12;;;;;;;17.25;3.60;;;13.60;89.90;;;;;;5016055;28;20037;-70
2023/04/25 02:21:37;;;;;;;12.45;3.55;;;13.60;89.90;;;;;;5015632;28;20057;-70
2023/04/25 02:24:04;;;;;;;8.30;3.70;;;13.60;89.80;;;;;;5015587;28;20495;-70
2023/04/25 02:26:30;;;;;;;11.38;3.78;;;13.50;90.10;;;;;;5015731;28;20075;-70
2023/04/25 02:28:56;;;;;;;17.98;4.38;;;13.50;90.30;;;;;;5015302;28;20087;-70
2023/04/25 02:31:22;;;;;;;11.88;3.65;;;13.60;90.30;;;;;;5015727;28;20018;-70
2023/04/25 02:33:48;;;;;;;15.18;4.07;;;13.60;90.30;;;;;;5015560;28;20486;-70
2023/04/25 02:36:13;;;;;;;14.55;3.65;;;13.50;90.40;;;;;;5015250;28;20036;-69
2023/04/25 02:38:39;;;;;;;12.88;4.30;;;13.50;90.60;;;;;;5015444;28;20471;-70
2023/04/25 02:41:05;;;;;;;14.38;4.07;;;13.50;90.60;;;;;;5015382;28;20033;-70
2023/04/25 02:43:30;;;;;;;10.85;3.40;;;13.50;90.40;;;;;;5015228;28;20029;-70
2023/04/25 02:45:56;;;;;;;10.98;3.45;;;13.50;90.20;;;;;;5015369;28;20482;-70
2023/04/25 02:48:22;;;;;;;13.18;3.75;;;13.50;90.40;;;;;;5015345;28;20549;-70
2023/04/25 02:50:47;;;;;;;17.20;3.97;;;13.50;90.50;;;;;;5015273;28;20057;-69
2023/04/25 02:53:13;;;;;;;13.13;3.47;;;13.40;90.40;;;;;;5015042;28;20386;-69
2023/04/25 02:55:38;;;;;;;13.73;3.47;;;13.40;90.20;;;;;;5015077;28;20030;-69
2023/04/25 02:58:05;;;;;;;15.05;3.50;;;13.40;90.30;;;;;;5015000;28;20022;-69
2023/04/25 03:00:30;;;;;;;11.93;3.78;;;13.30;90.30;;;;;;5015285;28;20057;-69
2023/04/25 03:02:56;;;;;;;15.90;4.03;;;13.40;90.50;;;;;;5014845;28;20475;-69
2023/04/25 03:05:22;;;;;;;12.45;3.50;;;13.30;90.40;;;;;;5015186;28;20042;-69
2023/04/25 03:07:47;;;;;;;13.57;3.50;;;13.30;90.40;;;;;;5014910;28;20054;-70
2023/04/25 03:10:13;;;;;;;13.95;3.85;;;13.30;90.50;;;;;;5008381;28;20540;-70
2023/04/25 03:12:39;;;;;;;15.18;4.13;;;13.30;90.50;;;;;;5017399;28;20029;-69
2023/04/25 03:15:05;;;;;;;16.17;4.28;;;13.30;90.60;;;;;;5012772;28;20017;-70
2023/04/25 03:17:31;;;;;;;17.10;4.03;;;13.30;90.80;;;;;;5004662;28;20030;-70
2023/04/25 03:19:57;;;;;;;19.50;4.50;;;13.30;90.70;;;;;;5012606;28;20356;-70
2023/04/25 03:22:23;;;;;;;11.77;3.63;;;13.30;90.70;;;;;;5004484;28;20148;-69
2023/04/25 03:24:50;;;;;;;13.30;3.97;;;13.30;90.70;;;;;;5028656;28;20030;-70
2023/04/25 03:27:16;;;;;;;10.93;3.63;;;13.30;90.80;;;;;;5012525;28;20049;-69
2023/04/25 03:29:41;;;;;;;11.38;3.97;;;13.30;90.70;;;;;;5013145;28;20482;-69
2023/04/25 03:32:07;;;;;;;13.90;3.55;;;13.30;90.70;;;;;;5019814;28;20040;-69
2023/04/25 03:34:32;;;;;;;12.77;3.70;;;13.30;90.70;;;;;;5014167;28;20021;-69
2023/04/25 03:36:58;;;;;;;11.55;2.60;;;13.40;90.60;;;;;;5012951;28;20479;-69
2023/04/25 03:39:23;;;;;;;10.77;2.95;;;13.50;89.20;;;;;;5012723;28;20109;-69
2023/04/25 03:41:49;;;;;;;11.85;3.47;;;13.50;89.10;;;;;;5014373;28;20030;-69
2023/04/25 03:44:15;;;;;;;11.02;2.60;;;13.40;88.10;;;;;;5012691;28;20153;-70
2023/04/25 03:46:40;;;;;;;10.75;2.50;;;13.40;87.10;;;;;;5014438;28;20072;-69
2023/04/25 03:49:06;;;;;;;7.97;2.85;;;13.30;86.40;;;;;;5010277;28;20022;-69
2023/04/25 03:51:32;;;;;;;10.40;3.00;;;13.20;87.60;;;;;;5010225;28;20418;-69
2023/04/25 03:53:57;;;;;;;10.30;2.65;;;13.10;87.50;;;;;;5013803;28;20023;-69
2023/04/25 03:56:23;;;;;;;11.38;2.50;;;13.10;87.50;;;;;;4995309;28;20029;-70
2023/04/25 03:58:49;;;;;;;9.82;2.53;;;13.10;87.50;;;;;;5000785;28;20034;-69
2023/04/25 04:01:14;;;;;;;7.63;2.30;;;13.10;87.90;;;;;;5033719;28;20014;-70
2023/04/25 04:03:40;;;;;;;9.10;2.28;;;13.10;87.60;;;;;;5033603;28;20033;-70
2023/04/25 04:06:07;;;;;;;11.20;2.92;;;13.10;86.90;;;;;;5013413;28;20046;-70
2023/04/25 04:08:33;;;;;;;11.10;2.78;;;13.00;86.50;;;;;;5013458;28;20058;-70
2023/04/25 04:10:59;;;;;;;9.02;2.88;;;13.00;87.20;;;;;;5013861;28;20105;-70
2023/04/25 04:13:28;;;;;;;6.32;2.22;;;13.00;86.50;;;;;;5012943;28;20021;-70
2023/04/25 04:15:55;;;;;;;11.27;2.58;;;13.00;86.20;;;;;;5013590;28;20538;-69
2023/04/25 04:18:21;;;;;;;7.38;2.33;;;13.00;85.50;;;;;;5013566;28;20033;-70
2023/04/25 04:20:47;;;;;;;10.63;2.63;;;12.90;85.50;;;;;;5013578;28;20379;-70
2023/04/25 04:23:13;;;;;;;12.35;3.15;;;12.90;85.70;;;;;;5011435;28;20037;-70
2023/04/25 04:25:40;;;;;;;13.55;3.00;;;12.90;86.00;;;;;;5012920;28;20480;-70
2023/04/25 04:28:06;;;;;;;7.82;2.40;;;12.90;85.90;;;;;;5013753;28;20104;-70
2023/04/25 04:30:33;;;;;;;6.85;2.63;;;12.90;86.40;;;;;;5013101;28;20108;-70
2023/04/25 04:33:00;;;;;;;8.55;2.42;;;12.90;86.20;;;;;;5013496;28;20025;-70
2023/04/25 04:35:26;;;;;;;7.53;2.75;;;12.90;85.80;;;;;;5012598;28;20022;-70
2023/04/25 04:37:51;;;;;;;11.25;2.90;;;12.90;85.70;;;;;;5013149;28;20033;-70
2023/04/25 04:40:18;;;;;;;12.88;2.88;;;12.80;85.50;;;;;;5013261;28;20036;-70
2023/04/25 04:42:47;;;;;;;8.32;3.28;;;12.80;85.90;;;;;;5013271;28;20026;-69
2023/04/25 04:45:14;;;;;;;6.63;2.33;;;12.80;86.20;;;;;;5011749;28;20410;-69
2023/04/25 04:47:40;;;;;;;11.20;2.78;;;12.80;83.80;;;;;;5012291;28;20375;-69
2023/04/25 04:50:09;;;;;;;10.98;2.70;;;12.50;83.50;;;;;;5013212;28;20028;-68
2023/04/25 04:52:36;;;;;;;8.32;3.00;;;12.20;84.40;;;;;;5013053;28;20029;-69
2023/04/25 04:55:03;;;;;;;8.85;2.50;;;12.00;86.00;;;;;;5013063;28;20459;-69
2023/04/25 04:57:29;;;;;;;10.02;2.80;;;11.90;86.50;;;;;;5013285;28;20026;-69
2023/04/25 04:59:55;;;;;;;13.10;3.00;;;11.80;86.20;;;;;;5012118;28;20014;-69
2023/04/25 05:02:21;;;;;;;7.35;2.65;;;11.60;86.50;;;;;;5012802;28;20549;-69
2023/04/25 05:04:46;;;;;;;11.63;3.15;;;11.50;88.10;;;;;;5012734;28;20180;-69
2023/04/25 05:07:12;;;;;;;12.00;3.33;;;11.60;88.00;;;;;;5011830;28;20030;-69
2023/04/25 05:09:38;;;;;;;10.45;2.88;;;11.50;88.60;;;;;;5012787;28;20091;-69
2023/04/25 05:12:03;;;;;;;7.75;3.00;;;11.40;88.90;;;;;;5013138;28;20471;-69
2023/04/25 05:14:30;;;;;;;11.32;3.38;;;11.30;90.00;;;;;;5012840;28;20034;-69
2023/04/25 05:16:56;;;;;;;10.93;3.78;;;11.20;89.80;;;;;;5012592;28;20030;-69
2023/04/25 05:19:21;;;;;;;11.68;3.22;;;11.00;90.50;;;;;;5002811;28;20030;-69
2023/04/25 05:21:47;;;;;;;10.27;3.60;;;11.00;90.80;;;;;;5004699;28;20022;-69
2023/04/25 05:24:13;;;;;;;9.43;2.80;;;11.00;90.90;;;;;;5009577;28;20108;-69
2023/04/25 05:26:38;;;;;;;15.70;4.05;;;11.20;90.70;;;;;;5009058;28;20383;-68
2023/04/25 05:29:05;;;;;;;11.77;3.03;;;11.10;90.70;;;;;;5011770;28;20043;-68
2023/04/25 05:31:31;;;;;;;10.95;2.67;;;10.90;90.60;;;;;;5011827;28;20407;-68
2023/04/25 05:33:57;;;;;;;9.25;2.80;;;10.90;90.80;;;;;;5011624;28;20018;-69
2023/04/25 05:36:23;;;;;;;14.52;3.33;;;10.90;90.90;;;;;;5012585;28;20034;-69
2023/04/25 05:38:49;;;;;;;10.82;2.90;;;11.00;90.80;;;;;;5009552;28;20387;-69
2023/04/25 05:41:14;;;;;;;8.98;2.97;;;10.70;90.80;;;;;;5010352;28;20026;-69
2023/04/25 05:43:45;;;;;;;9.52;3.25;;;10.70;91.40;;;;;;5006780;28;20021;-69
2023/04/25 05:46:11;;;;;;;14.95;3.63;;;10.80;91.10;;;;;;5002763;28;20046;-68
2023/04/25 05:48:37;;;;;;;11.88;2.67;;;10.80;91.00;;;;;;5025827;28;20096;-64
2023/04/25 05:51:03;;;;;;;12.10;3.17;;;10.70;91.20;;;;;;5013487;28;20044;-68
2023/04/25 05:53:28;;;;;;;12.30;2.55;;;11.10;91.60;;;;;;5011621;28;20432;-69
2023/04/25 05:55:54;;;;;;;11.02;3.05;;;11.40;90.90;;;;;;5014796;28;20076;-66
2023/04/25 05:58:20;;;;;;;11.73;2.70;;;11.50;90.90;;;;;;5025262;28;20021;-71
2023/04/25 06:00:46;;;;;;;11.15;2.90;;;11.60;90.60;;;;;;5010072;28;20026;-65
2023/04/25 06:03:14;;;;;;;11.25;3.35;;;11.70;90.70;;;;;;5008541;28;20030;-73
2023/04/25 06:05:41;;;;;;;8.30;2.78;;;11.70;90.70;;;;;;5013295;28;20033;-68
2023/04/25 06:08:06;;;;;;;10.77;3.15;;;11.80;90.70;;;;;;5015647;28;20062;-66
2023/04/25 06:10:32;;;;;;;10.07;2.65;;;11.90;91.00;;;;;;5012316;28;20582;-66
2023/04/25 06:12:57;;;;;;;7.55;2.53;;;12.00;90.90;;;;;;5016471;28;20030;-68
2023/04/25 06:15:23;;;;;;;8.27;2.42;;;12.20;91.00;;;;;;5009641;28;20033;-68
2023/04/25 06:17:49;;;;;;;7.03;2.10;;;12.10;90.50;;;;;;5012641;28;20034;-68
2023/04/25 06:20:14;;;;;;;6.78;2.45;;;12.10;90.30;;;;;;5012868;28;20065;-68
2023/04/25 06:22:40;;;;;;;8.57;2.50;;;12.20;89.90;;;;;;5015787;28;20021;-67
2023/04/25 06:25:06;;;;;;;7.65;2.22;;;12.30;89.70;;;;;;5013455;28;20134;-71
2023/04/25 06:27:33;;;;;;;9.98;2.20;;;12.30;89.40;;;;;;5015163;28;20014;-71
2023/04/25 06:29:58;;;;;;;7.40;2.63;;;12.20;89.80;;;;;;5015127;28;20037;-70
2023/04/25 06:32:25;;;;;;;9.77;2.78;;;12.30;90.10;;;;;;5015560;28;20018;-65
2023/04/25 06:34:51;;;;;;;8.77;2.20;;;12.30;89.40;;;;;;5015230;28;20076;-66
2023/04/25 06:37:16;;;;;;;6.45;2.17;;;12.40;89.40;;;;;;5015986;28;20478;-70
2023/04/25 06:39:42;;;;;;;7.63;2.05;;;12.40;88.80;;;;;;5015358;28;20018;-67
2023/04/25 06:42:08;;;;;;;8.02;2.15;;;12.50;88.40;;;;;;5010606;28;20105;-67
2023/04/25 06:44:33;;;;;;;9.43;2.28;;;12.40;89.00;;;;;;5001226;28;20365;-67
2023/04/25 06:46:59;;;;;;;10.40;1.98;;;12.50;88.80;;;;;;5008381;28;20414;-73
2023/04/25 06:49:24;;;;;;;8.13;1.80;;;12.50;88.80;;;;;;4999240;28;20035;-72
2023/04/25 06:51:50;;;;;;;6.20;1.38;;;12.50;89.20;;;;;;5012710;28;20029;-69
2023/04/25 06:54:16;;;;;;;5.10;1.40;;;12.50;89.40;;;;;;5010672;28;20030;-71
2023/04/25 06:56:41;;;;;;;7.93;1.95;;;12.60;89.00;;;;;;4996780;28;20027;-68
2023/04/25 06:59:07;;;;;;;7.47;1.55;;;12.60;89.30;;;;;;5004258;28;20050;-69
2023/04/25 07:01:33;;;;;;;4.50;1.50;;;12.70;87.80;;;;;;5003719;28;20025;-68
2023/04/25 07:03:58;;;;;;;7.70;2.20;;;12.70;87.60;;;;;;4994890;28;20022;-68
2023/04/25 07:06:25;;;;;;;6.15;1.83;;;12.80;89.30;;;;;;5010097;28;20038;-70
2023/04/25 07:08:51;;;;;;;7.78;1.83;;;12.80;87.20;;;;;;5011590;28;20018;-67
2023/04/25 07:11:16;;;;;;;7.03;1.90;;;12.90;85.50;;;;;;4996151;28;20085;-68
2023/04/25 07:13:42;;;;;;;9.45;2.03;;;12.90;85.20;;;;;;5008154;28;20037;-70
2023/04/25 07:16:07;;;;;;;9.50;2.50;;;12.90;85.30;;;;;;5011554;28;20021;-64
2023/04/25 07:18:33;;;;;;;9.80;1.70;;;13.00;85.60;;;;;;5009825;28;20422;-64
2023/04/25 07:20:59;;;;;;;6.18;1.90;;;13.10;85.10;;;;;;5014150;28;20018;-63
2023/04/25 07:23:24;;;;;;;7.13;1.85;;;13.20;85.50;;;;;;5014696;28;20475;-63
2023/04/25 07:25:50;;;;;;;8.27;1.95;;;13.30;85.70;;;;;;5013993;28;20502;-63
2023/04/25 07:28:16;;;;;;;10.43;1.75;;;13.50;85.30;;;;;;5014459;28;20068;-64
2023/04/25 07:30:41;;;;;;;8.93;1.80;;;13.70;85.10;;;;;;5005982;28;20068;-67
2023/04/25 07:33:07;;;;;;;6.97;1.88;;;13.80;83.50;;;;;;5013402;28;20475;-63
2023/04/25 07:35:32;;;;;;;6.78;1.65;;;13.90;82.40;;;;;;5011676;28;20044;-64
2023/04/25 07:37:58;;;;;;;4.05;0.88;;;14.00;80.50;;;;;;5004561;28;20015;-66
2023/04/25 07:40:24;;;;;;;4.93;1.10;;;14.00;81.60;;;;;;5006457;28;20031;-67
2023/04/25 07:42:50;;;;;;;4.70;1.30;;;14.10;81.20;;;;;;5009204;28;20080;-65
2023/04/25 07:45:15;;;;;;;5.43;1.10;;;14.20;80.00;;;;;;5005119;28;20496;-65
2023/04/25 07:47:41;;;;;;;4.95;1.35;;;14.30;79.30;;;;;;5005126;28;20025;-68
2023/04/25 07:50:07;;;;;;;6.00;1.35;;;14.40;79.40;;;;;;5001959;28;20038;-66
2023/04/25 07:52:33;;;;;;;6.35;0.93;;;14.50;78.70;;;;;;5005544;28;20023;-68
2023/04/25 07:54:58;;;;;;;4.82;1.13;;;14.40;76.20;;;;;;4994139;28;20041;-68
2023/04/25 07:57:24;;;;;;;4.60;1.13;;;14.40;76.80;;;;;;5003950;28;20490;-66
2023/04/25 07:59:49;;;;;;;7.00;1.50;;;14.30;77.40;;;;;;5013811;28;20072;-66
2023/04/25 08:02:15;;;;;;;5.10;1.30;;;14.30;76.90;;;;;;5007033;28;20030;-68
2023/04/25 08:04:41;;;;;;;6.28;1.20;;;14.30;76.80;;;;;;5012382;28;20045;-65
2023/04/25 08:07:06;;;;;;;4.07;0.80;;;14.30;77.20;;;;;;5004931;28;20034;-66
2023/04/25 08:09:36;;;;;;;8.95;1.45;;;14.20;80.00;;;;;;4993744;28;20475;-67
2023/04/25 08:12:02;;;;;;;4.35;1.05;;;14.20;80.50;;;;;;5000073;28;20062;-65
2023/04/25 08:14:31;;;;;;;4.10;1.23;;;14.20;81.50;;;;;;4999691;28;20018;-69
2023/04/25 08:16:56;;;;;;;5.60;1.30;;;14.10;82.40;;;;;;4993990;28;20387;-64
2023/04/25 08:19:22;;;;;;;6.25;1.70;;;14.10;82.40;;;;;;4993808;28;20027;-65
2023/04/25 08:21:48;;;;;;;5.68;0.98;;;14.20;83.50;;;;;;5003957;28;20033;-64
2023/04/25 08:24:13;;;;;;;5.68;0.90;;;14.20;83.40;;;;;;5003500;28;20018;-65
2023/04/25 08:26:40;;;;;;;4.95;1.55;;;14.20;84.40;;;;;;4998626;28;20038;-64
2023/04/25 08:29:06;;;;;;;4.90;0.98;;;14.10;84.10;;;;;;4993683;28;20069;-64
2023/04/25 08:31:31;;;;;;;6.07;1.00;;;14.10;85.20;;;;;;5006452;28;20033;-64
2023/04/25 08:33:57;;;;;;;5.00;1.10;;;14.10;83.40;;;;;;4993492;28;20031;-65
2023/04/25 08:36:23;;;;;;;5.95;1.15;;;14.10;83.40;;;;;;4997441;28;20034;-66
2023/04/25 08:38:49;;;;;;;4.03;1.05;;;14.10;81.70;;;;;;5001353;28;20022;-63
2023/04/25 08:41:16;;;;;;;4.78;1.08;;;14.20;81.00;;;;;;5008105;28;20037;-64
2023/04/25 08:43:43;;;;;;;6.25;1.30;;;14.20;80.80;;;;;;5012681;28;20030;-70
2023/04/25 08:46:11;;;;;;;8.45;1.42;;;14.10;81.20;;;;;;5012552;28;20037;-67
2023/04/25 08:48:36;;;;;;;7.47;1.88;;;14.30;80.60;;;;;;5006242;28;20041;-66
2023/04/25 08:51:06;;;;;;;4.25;1.17;;;14.30;80.80;;;;;;5001238;28;20054;-64
2023/04/25 08:53:33;;;;;;;7.50;1.25;;;14.40;80.90;;;;;;4993402;28;20379;-66
2023/04/25 08:56:04;;;;;;;7.03;1.50;;;14.30;80.90;;;;;;5007704;28;20022;-65
2023/04/25 08:58:30;;;;;;;5.38;1.30;;;14.30;80.10;;;;;;5011404;28;20387;-67
2023/04/25 09:00:56;;;;;;;6.80;1.48;;;14.40;79.90;;;;;;5003666;28;20072;-69
2023/04/25 09:03:22;;;;;;;5.68;0.98;;;14.40;79.80;;;;;;5007786;28;20038;-67
2023/04/25 09:05:47;;;;;;;5.40;1.10;;;14.40;80.70;;;;;;4999817;28;20038;-69
2023/04/25 09:08:13;;;;;;;2.92;0.98;;;14.40;79.40;;;;;;5007189;28;20034;-67
2023/04/25 09:10:41;;;;;;;3.92;0.82;;;14.50;78.70;;;;;;5012680;28;20040;-70
2023/04/25 09:13:14;;;;;;;4.82;1.15;;;14.50;78.20;;;;;;5006571;28;20523;-64
2023/04/25 09:16:09;;;;;;;3.58;0.88;;;14.50;78.30;;;;;;5012205;28;20026;-64
2023/04/25 09:18:36;;;;;;;3.80;0.93;;;14.50;77.70;;;;;;4983271;28;20081;-64
2023/04/25 09:21:12;;;;;;;4.60;0.85;;;14.50;77.30;;;;;;4993717;28;20060;-63
2023/04/25 09:23:45;;;;;;;2.67;0.70;;;14.40;76.60;;;;;;5014098;28;20173;-64
2023/04/25 09:26:14;;;;;;;5.80;1.42;;;14.50;78.20;;;;;;5015834;28;20046;-63
2023/04/25 09:28:42;;;;;;;3.60;0.98;;;14.50;77.50;;;;;;5016575;28;20084;-64
2023/04/25 09:31:10;;;;;;;4.07;0.88;;;14.50;76.70;;;;;;5003592;28;20392;-67
2023/04/25 09:33:36;;;;;;;3.67;1.13;;;14.50;76.40;;;;;;4997044;28;20045;-64
2023/04/25 09:36:07;;;;;;;9.73;0.73;;;14.60;76.20;;;;;;4996930;28;20042;-65
2023/04/25 09:38:41;;;;;;;4.87;1.03;;;14.60;76.10;;;;;;5006983;28;20387;-64
2023/04/25 09:41:08;;;;;;;5.60;1.20;;;14.60;76.80;;;;;;5012724;28;20364;-65
2023/04/25 09:43:34;;;;;;;4.63;1.05;;;14.60;76.50;;;;;;5003910;28;20025;-67
2023/04/25 09:46:00;;;;;;;5.63;1.02;;;14.60;77.00;;;;;;4997991;28;20034;-67
2023/04/25 09:48:28;;;;;;;5.72;0.90;;;14.60;80.20;;;;;;5004856;28;20036;-66
2023/04/25 09:51:05;;;;;;;5.07;0.88;;;14.60;82.20;;;;;;5009165;28;20022;-68
2023/04/25 09:53:33;;;;;;;3.10;0.77;;;14.50;83.40;;;;;;4999123;28;20030;-69
2023/04/25 09:56:03;;;;;;;2.45;0.60;;;14.40;84.00;;;;;;5007300;28;20028;-68
2023/04/25 09:58:30;;;;;;;5.32;1.08;;;14.40;84.30;;;;;;5004594;28;20060;-66
2023/04/25 10:01:00;;;;;;;5.72;1.13;;;14.40;84.00;;;;;;5007798;28;20028;-69
2023/04/25 10:03:27;;;;;;;3.75;0.80;;;14.40;83.10;;;;;;5010669;28;20053;-66
2023/04/25 10:05:54;;;;;;;4.70;0.80;;;14.40;83.40;;;;;;5013399;28;20030;-64
2023/04/25 10:08:20;;;;;;;3.30;0.77;;;14.40;82.70;;;;;;5004259;28;20061;-67
2023/04/25 10:10:48;;;;;;;3.53;0.63;;;14.50;81.60;;;;;;5001166;28;20018;-67
2023/04/25 10:13:15;;;;;;;6.72;1.13;;;14.50;80.60;;;;;;5015659;28;20022;-66
2023/04/25 10:15:41;;;;;;;4.82;1.10;;;14.50;79.90;;;;;;5013897;28;20026;-70
2023/04/25 10:18:07;;;;;;;3.50;1.00;;;14.50;79.60;;;;;;5015504;28;20514;-67
2023/04/25 10:20:33;;;;;;;4.85;1.00;;;14.50;79.60;;;;;;5010854;28;20060;-64
2023/04/25 10:23:13;;;;;;;3.47;1.08;;;14.60;80.10;;;;;;5013934;28;20102;-66
2023/04/25 10:25:40;;;;;;;4.05;0.90;;;14.60;80.30;;;;;;5013807;28;20030;-67
2023/04/25 10:28:05;;;;;;;4.53;1.00;;;14.70;79.60;;;;;;5014235;28;20016;-65
2023/04/25 10:30:31;;;;;;;4.57;1.13;;;14.60;80.00;;;;;;5015824;28;20116;-67
2023/04/25 10:32:59;;;;;;;3.55;1.00;;;14.60;79.10;;;;;;5012215;28;20022;-65
2023/04/25 10:35:27;;;;;;;4.70;1.02;;;14.70;75.80;;;;;;5013470;28;20030;-60
2023/04/25 10:38:09;;;;;;;2.78;0.82;;;14.60;76.50;;;;;;5013261;28;20053;-66
2023/04/25 10:40:35;;;;;;;3.08;0.80;;;14.60;78.10;;;;;;5008837;28;20076;-65
2023/04/25 10:43:36;;;;;;;6.10;1.00;;;14.70;79.80;;;;;;5014846;28;20483;-70
2023/04/25 10:46:02;;;;;;;3.42;1.05;;;14.80;77.10;;;;;;5010338;28;20038;-62
2023/04/25 10:48:30;;;;;;;3.20;1.00;;;14.80;77.60;;;;;;5013178;28;20050;-63
2023/04/25 10:51:15;;;;;;;6.22;1.08;;;14.90;76.20;;;;;;5014328;28;20022;-69
2023/04/25 10:53:41;;;;;;;4.55;0.80;;;14.90;74.70;;;;;;5000594;28;20108;-68
2023/04/25 10:56:22;;;;;;;2.75;0.45;;;14.90;75.30;;;;;;5014189;28;20113;-68
2023/04/25 10:58:49;;;;;;;3.90;0.68;;;14.80;72.30;;;;;;5014489;28;20022;-67
2023/04/25 11:01:19;;;;;;;2.80;0.70;;;14.90;75.00;;;;;;5012619;28;20018;-64
2023/04/25 11:03:45;;;;;;;2.03;0.70;;;14.90;71.80;;;;;;5015013;28;20081;-63
2023/04/25 11:06:46;;;;;;;2.08;0.50;;;14.90;71.90;;;;;;5008691;28;20446;-69
2023/04/25 11:09:13;;;;;;;3.05;0.95;;;14.90;72.00;;;;;;5012964;28;20040;-67
2023/04/25 11:11:38;;;;;;;3.40;0.60;;;15.00;72.70;;;;;;5012161;28;20022;-68
2023/04/25 11:14:04;;;;;;;3.28;0.80;;;15.00;71.10;;;;;;5011551;28;20033;-69
2023/04/25 11:16:30;;;;;;;5.10;0.80;;;15.00;74.60;;;;;;5013826;28;20056;-70
2023/04/25 11:18:57;;;;;;;5.97;0.90;;;15.00;72.40;;;;;;5011155;28;20029;-69
2023/04/25 11:21:26;;;;;;;2.60;0.80;;;15.10;73.10;;;;;;5014696;28;20105;-70
2023/04/25 11:23:51;;;;;;;2.15;0.50;;;15.10;72.90;;;;;;5010688;28;20487;-70
2023/04/25 11:26:20;;;;;;;2.53;0.55;;;15.10;71.00;;;;;;5002456;28;20033;-69
2023/04/25 11:28:46;;;;;;;2.55;0.60;;;15.20;70.30;;;;;;5001426;28;20017;-71
2023/04/25 11:31:12;;;;;;;1.70;0.50;;;15.20;70.70;;;;;;5011546;28;20088;-71
2023/04/25 11:33:38;;;;;;;4.10;0.93;;;15.10;69.60;;;;;;4996848;28;20022;-69
2023/04/25 11:36:05;;;;;;;3.70;0.85;;;15.10;70.70;;;;;;5000280;28;20457;-68
2023/04/25 11:38:30;;;;;;;3.03;0.57;;;15.10;72.70;;;;;;5003298;28;20060;-69
2023/04/25 11:40:57;;;;;;;3.88;0.95;;;15.10;73.70;;;;;;5006822;28;20136;-69
2023/04/25 11:43:22;;;;;;;2.90;0.90;;;15.00;74.00;;;;;;5005752;28;20026;-70
2023/04/25 11:45:50;;;;;;;6.28;1.08;;;15.10;76.60;;;;;;5002928;28;20403;-69
2023/04/25 11:48:16;;;;;;;3.47;0.50;;;15.10;76.00;;;;;;5009984;28;20237;-70
2023/04/25 11:50:42;;;;;;;4.00;0.98;;;15.10;72.70;;;;;;5003208;28;20089;-69
2023/04/25 11:53:08;;;;;;;4.20;0.65;;;15.10;72.60;;;;;;4999362;28;20061;-70
2023/04/25 11:55:34;;;;;;;6.40;1.33;;;15.10;71.70;;;;;;5009913;28;20029;-71
2023/04/25 11:58:02;;;;;;;3.92;0.70;;;15.20;75.10;;;;;;5005514;28;20507;-71
2023/04/25 12:00:27;;;;;;;3.67;0.73;;;15.30;76.50;;;;;;5003365;28;20033;-70
2023/04/25 12:02:57;;;;;;;3.50;1.00;;;15.30;73.00;;;;;;5005138;28;20426;-70
2023/04/25 12:05:28;;;;;;;4.32;0.70;;;15.40;71.60;;;;;;5002856;28;20035;-70
2023/04/25 12:07:54;;;;;;;3.67;0.43;;;15.40;71.60;;;;;;5004592;28;20631;-69
2023/04/25 12:10:20;;;;;;;2.05;0.57;;;15.40;68.60;;;;;;5008667;28;20025;-65
2023/04/25 12:12:47;;;;;;;2.00;0.47;;;15.40;68.80;;;;;;5014843;28;20116;-69
2023/04/25 12:15:21;;;;;;;3.63;0.50;;;15.40;69.00;;;;;;5011490;28;20112;-67
2023/04/25 12:17:49;;;;;;;1.52;0.40;;;15.40;71.60;;;;;;5011504;28;20040;-66
2023/04/25 12:20:19;;;;;;;4.45;0.98;;;15.40;68.90;;;;;;5012889;28;20034;-65
2023/04/25 12:22:47;;;;;;;2.70;0.52;;;15.40;69.10;;;;;;5012074;28;20038;-64
2023/04/25 12:25:35;;;;;;;3.60;0.68;;;15.40;70.50;;;;;;5011416;28;20032;-66
2023/04/25 12:28:19;;;;;;;2.92;0.82;;;15.40;70.70;;;;;;5011980;28;20041;-66
2023/04/25 12:31:05;;;;;;;4.28;0.80;;;15.40;71.00;;;;;;5010051;28;20017;-66
2023/04/25 12:33:33;;;;;;;2.85;0.73;;;15.40;70.40;;;;;;5021355;28;20063;-67
2023/04/25 12:36:03;;;;;;;5.82;1.30;;;15.30;71.50;;;;;;5014172;28;20135;-66
2023/04/25 12:38:31;;;;;;;4.47;0.90;;;15.20;72.20;;;;;;5011492;28;20026;-67
2023/04/25 12:40:58;;;;;;;5.97;0.82;;;15.30;72.70;;;;;;5011755;28;20474;-67
2023/04/25 12:43:23;;;;;;;5.20;1.02;;;15.20;74.50;;;;;;5012404;28;20116;-69